Itapitanga, Brazil
Current Conditions -  °F | °C
As of 3:00 PM on Friday 31 Oct 2014 (Local Time) from SBIL Reporting Station
Broken Clouds Broken Clouds  
Wind Chill: 81°   Ceiling: 7000
Heat Index: 83°   Visibility: 6mi
Dew Point: 68°   Wind: 15mph
Humidity: 65%   Direction: 80°E
Pressure: 30"   Gusts: NA
Location:  14.42°S, 39.56°W
Report Text: SBIL 311800Z 08013KT 9999 FEW025 BKN070 27/20 Q1016
Loading
Personal Weather Stations






























Interactive Weather Map
Tropical Storm Tracking
New forecast layout! Learn more

10-Day Weather Forecast

Advertisements
Track Severe Weather on mobile